sensor_id;sensor_type;location;lat;lon;timestamp;P1;durP1;ratioP1;P2;durP2;ratioP2
35364;SDS011;21464;48.112;11.530;2023-01-29T00:00:03;20.37;;;14.43;;
35364;SDS011;21464;48.112;11.530;2023-01-29T00:02:38;17.67;;;14.37;;
35364;SDS011;21464;48.112;11.530;2023-01-29T00:05:05;17.03;;;13.07;;
35364;SDS011;21464;48.112;11.530;2023-01-29T00:07:32;19.70;;;13.50;;
35364;SDS011;21464;48.112;11.530;2023-01-29T00:09:58;18.60;;;13.87;;
35364;SDS011;21464;48.112;11.530;2023-01-29T00:12:24;18.73;;;13.43;;
35364;SDS011;21464;48.112;11.530;2023-01-29T00:14:51;18.33;;;13.97;;
35364;SDS011;21464;48.112;11.530;2023-01-29T00:17:17;17.23;;;13.43;;
35364;SDS011;21464;48.112;11.530;2023-01-29T00:19:43;16.37;;;12.83;;
35364;SDS011;21464;48.112;11.530;2023-01-29T00:22:10;17.30;;;13.13;;
35364;SDS011;21464;48.112;11.530;2023-01-29T00:24:36;16.00;;;13.37;;
35364;SDS011;21464;48.112;11.530;2023-01-29T00:27:02;14.93;;;12.83;;
35364;SDS011;21464;48.112;11.530;2023-01-29T00:29:28;16.10;;;13.30;;
35364;SDS011;21464;48.112;11.530;2023-01-29T00:31:54;16.17;;;12.90;;
35364;SDS011;21464;48.112;11.530;2023-01-29T00:34:21;16.53;;;13.93;;
35364;SDS011;21464;48.112;11.530;2023-01-29T00:36:49;19.60;;;13.63;;
35364;SDS011;21464;48.112;11.530;2023-01-29T00:39:15;16.07;;;12.43;;
35364;SDS011;21464;48.112;11.530;2023-01-29T00:41:41;17.90;;;13.23;;
35364;SDS011;21464;48.112;11.530;2023-01-29T00:44:26;16.07;;;13.50;;
35364;SDS011;21464;48.112;11.530;2023-01-29T00:47:11;17.37;;;13.60;;
35364;SDS011;21464;48.112;11.530;2023-01-29T00:49:56;19.87;;;14.17;;
35364;SDS011;21464;48.112;11.530;2023-01-29T00:52:22;16.73;;;14.27;;
35364;SDS011;21464;48.112;11.530;2023-01-29T00:54:49;17.37;;;13.73;;
35364;SDS011;21464;48.112;11.530;2023-01-29T00:57:16;17.20;;;14.13;;
35364;SDS011;21464;48.112;11.530;2023-01-29T00:59:42;17.83;;;14.50;;
35364;SDS011;21464;48.112;11.530;2023-01-29T01:02:08;19.87;;;14.27;;
35364;SDS011;21464;48.112;11.530;2023-01-29T01:04:53;18.13;;;14.23;;
35364;SDS011;21464;48.112;11.530;2023-01-29T01:07:19;17.80;;;13.17;;
35364;SDS011;21464;48.112;11.530;2023-01-29T01:09:46;16.20;;;12.43;;
35364;SDS011;21464;48.112;11.530;2023-01-29T01:12:30;16.37;;;12.93;;
35364;SDS011;21464;48.112;11.530;2023-01-29T01:14:57;16.53;;;12.37;;
35364;SDS011;21464;48.112;11.530;2023-01-29T01:17:23;16.93;;;12.43;;
35364;SDS011;21464;48.112;11.530;2023-01-29T01:19:49;14.37;;;12.10;;
35364;SDS011;21464;48.112;11.530;2023-01-29T01:22:16;16.17;;;13.20;;
35364;SDS011;21464;48.112;11.530;2023-01-29T01:24:43;13.47;;;11.47;;
35364;SDS011;21464;48.112;11.530;2023-01-29T01:27:09;14.80;;;10.90;;
35364;SDS011;21464;48.112;11.530;2023-01-29T01:29:35;14.43;;;10.83;;
35364;SDS011;21464;48.112;11.530;2023-01-29T01:32:02;13.43;;;10.33;;
35364;SDS011;21464;48.112;11.530;2023-01-29T01:34:28;13.47;;;10.53;;
35364;SDS011;21464;48.112;11.530;2023-01-29T01:36:54;13.53;;;10.60;;
35364;SDS011;21464;48.112;11.530;2023-01-29T01:39:23;15.30;;;11.00;;
35364;SDS011;21464;48.112;11.530;2023-01-29T01:41:50;13.67;;;10.60;;
35364;SDS011;21464;48.112;11.530;2023-01-29T01:47:21;12.53;;;9.60;;
35364;SDS011;21464;48.112;11.530;2023-01-29T01:49:54;14.17;;;10.17;;
35364;SDS011;21464;48.112;11.530;2023-01-29T01:52:24;12.90;;;10.80;;
35364;SDS011;21464;48.112;11.530;2023-01-29T01:54:51;12.73;;;10.93;;
35364;SDS011;21464;48.112;11.530;2023-01-29T01:57:17;12.33;;;10.30;;
35364;SDS011;21464;48.112;11.530;2023-01-29T01:59:55;13.60;;;10.70;;
35364;SDS011;21464;48.112;11.530;2023-01-29T02:02:40;14.93;;;10.43;;
35364;SDS011;21464;48.112;11.530;2023-01-29T02:05:28;13.30;;;10.53;;
35364;SDS011;21464;48.112;11.530;2023-01-29T02:08:15;12.23;;;10.20;;
35364;SDS011;21464;48.112;11.530;2023-01-29T02:11:08;10.60;;;9.40;;
35364;SDS011;21464;48.112;11.530;2023-01-29T02:13:35;10.80;;;9.27;;
35364;SDS011;21464;48.112;11.530;2023-01-29T02:16:01;11.43;;;9.40;;
35364;SDS011;21464;48.112;11.530;2023-01-29T02:18:27;12.47;;;9.40;;
35364;SDS011;21464;48.112;11.530;2023-01-29T02:23:40;12.73;;;9.87;;
35364;SDS011;21464;48.112;11.530;2023-01-29T02:31:52;11.07;;;9.67;;
35364;SDS011;21464;48.112;11.530;2023-01-29T02:34:45;10.27;;;9.13;;
35364;SDS011;21464;48.112;11.530;2023-01-29T02:37:49;11.50;;;9.47;;
35364;SDS011;21464;48.112;11.530;2023-01-29T02:40:44;10.77;;;9.33;;
35364;SDS011;21464;48.112;11.530;2023-01-29T02:48:42;11.67;;;9.13;;
35364;SDS011;21464;48.112;11.530;2023-01-29T02:51:17;10.07;;;9.03;;
35364;SDS011;21464;48.112;11.530;2023-01-29T02:53:52;10.80;;;8.73;;
35364;SDS011;21464;48.112;11.530;2023-01-29T02:56:25;10.00;;;8.67;;
35364;SDS011;21464;48.112;11.530;2023-01-29T02:58:57;10.47;;;9.37;;
35364;SDS011;21464;48.112;11.530;2023-01-29T03:01:27;11.93;;;9.10;;
35364;SDS011;21464;48.112;11.530;2023-01-29T03:03:57;9.97;;;8.87;;
35364;SDS011;21464;48.112;11.530;2023-01-29T03:06:31;11.07;;;8.63;;
35364;SDS011;21464;48.112;11.530;2023-01-29T03:09:02;9.37;;;8.20;;
35364;SDS011;21464;48.112;11.530;2023-01-29T03:11:38;10.10;;;8.80;;
35364;SDS011;21464;48.112;11.530;2023-01-29T03:14:07;9.77;;;8.73;;
35364;SDS011;21464;48.112;11.530;2023-01-29T03:16:39;8.97;;;8.07;;
35364;SDS011;21464;48.112;11.530;2023-01-29T03:19:11;9.97;;;8.60;;
35364;SDS011;21464;48.112;11.530;2023-01-29T03:21:42;9.67;;;8.53;;
35364;SDS011;21464;48.112;11.530;2023-01-29T03:24:36;11.33;;;9.57;;
35364;SDS011;21464;48.112;11.530;2023-01-29T03:27:25;11.13;;;9.37;;
35364;SDS011;21464;48.112;11.530;2023-01-29T03:30:15;11.37;;;10.20;;
35364;SDS011;21464;48.112;11.530;2023-01-29T03:33:17;15.17;;;10.63;;
35364;SDS011;21464;48.112;11.530;2023-01-29T03:35:51;14.67;;;11.53;;
35364;SDS011;21464;48.112;11.530;2023-01-29T03:38:21;13.43;;;10.87;;
35364;SDS011;21464;48.112;11.530;2023-01-29T03:49:18;11.40;;;9.50;;
35364;SDS011;21464;48.112;11.530;2023-01-29T03:54:27;10.80;;;8.77;;
35364;SDS011;21464;48.112;11.530;2023-01-29T03:56:59;10.67;;;9.40;;
35364;SDS011;21464;48.112;11.530;2023-01-29T03:59:40;10.53;;;9.30;;
35364;SDS011;21464;48.112;11.530;2023-01-29T04:02:31;12.00;;;9.20;;
35364;SDS011;21464;48.112;11.530;2023-01-29T04:05:08;13.00;;;10.33;;
35364;SDS011;21464;48.112;11.530;2023-01-29T04:07:51;11.53;;;10.33;;
35364;SDS011;21464;48.112;11.530;2023-01-29T04:10:22;12.43;;;10.23;;
35364;SDS011;21464;48.112;11.530;2023-01-29T04:12:52;12.67;;;10.80;;
35364;SDS011;21464;48.112;11.530;2023-01-29T04:15:21;14.97;;;10.70;;
35364;SDS011;21464;48.112;11.530;2023-01-29T04:17:50;13.20;;;11.23;;
35364;SDS011;21464;48.112;11.530;2023-01-29T04:20:28;13.87;;;10.67;;
35364;SDS011;21464;48.112;11.530;2023-01-29T04:22:54;13.77;;;10.97;;
35364;SDS011;21464;48.112;11.530;2023-01-29T04:25:21;13.90;;;10.87;;
35364;SDS011;21464;48.112;11.530;2023-01-29T04:44:15;14.17;;;11.33;;
35364;SDS011;21464;48.112;11.530;2023-01-29T04:46:56;15.03;;;11.93;;
35364;SDS011;21464;48.112;11.530;2023-01-29T04:58:06;15.37;;;12.57;;
35364;SDS011;21464;48.112;11.530;2023-01-29T05:00:40;14.37;;;11.93;;
35364;SDS011;21464;48.112;11.530;2023-01-29T05:03:11;14.63;;;12.23;;
35364;SDS011;21464;48.112;11.530;2023-01-29T05:05:39;16.67;;;12.73;;
35364;SDS011;21464;48.112;11.530;2023-01-29T05:08:07;15.40;;;12.80;;
35364;SDS011;21464;48.112;11.530;2023-01-29T05:10:34;15.10;;;12.17;;
35364;SDS011;21464;48.112;11.530;2023-01-29T05:13:01;15.17;;;12.33;;
35364;SDS011;21464;48.112;11.530;2023-01-29T05:15:31;15.10;;;11.87;;
35364;SDS011;21464;48.112;11.530;2023-01-29T05:18:04;16.20;;;12.20;;
35364;SDS011;21464;48.112;11.530;2023-01-29T05:20:34;17.53;;;13.67;;
35364;SDS011;21464;48.112;11.530;2023-01-29T05:23:02;17.77;;;13.13;;
35364;SDS011;21464;48.112;11.530;2023-01-29T05:25:29;18.23;;;14.43;;
35364;SDS011;21464;48.112;11.530;2023-01-29T05:27:57;16.67;;;13.70;;
35364;SDS011;21464;48.112;11.530;2023-01-29T05:30:39;17.10;;;13.90;;
35364;SDS011;21464;48.112;11.530;2023-01-29T05:33:11;17.47;;;14.00;;
35364;SDS011;21464;48.112;11.530;2023-01-29T05:35:38;16.87;;;13.43;;
35364;SDS011;21464;48.112;11.530;2023-01-29T05:38:05;17.93;;;13.67;;
35364;SDS011;21464;48.112;11.530;2023-01-29T05:40:31;14.80;;;11.63;;
35364;SDS011;21464;48.112;11.530;2023-01-29T05:42:58;13.47;;;11.20;;
35364;SDS011;21464;48.112;11.530;2023-01-29T05:45:24;13.10;;;11.07;;
35364;SDS011;21464;48.112;11.530;2023-01-29T05:47:54;14.63;;;11.53;;
35364;SDS011;21464;48.112;11.530;2023-01-29T05:50:23;14.63;;;12.10;;
35364;SDS011;21464;48.112;11.530;2023-01-29T05:52:59;14.57;;;11.00;;
35364;SDS011;21464;48.112;11.530;2023-01-29T05:55:26;12.73;;;10.87;;
35364;SDS011;21464;48.112;11.530;2023-01-29T05:57:54;14.47;;;10.93;;
35364;SDS011;21464;48.112;11.530;2023-01-29T06:00:20;11.83;;;10.23;;
35364;SDS011;21464;48.112;11.530;2023-01-29T06:02:47;12.87;;;10.50;;
35364;SDS011;21464;48.112;11.530;2023-01-29T06:05:13;12.13;;;10.93;;
35364;SDS011;21464;48.112;11.530;2023-01-29T06:07:40;19.97;;;14.60;;
35364;SDS011;21464;48.112;11.530;2023-01-29T06:10:13;13.30;;;11.23;;
35364;SDS011;21464;48.112;11.530;2023-01-29T06:12:41;13.07;;;10.40;;
35364;SDS011;21464;48.112;11.530;2023-01-29T06:15:07;12.47;;;10.37;;
35364;SDS011;21464;48.112;11.530;2023-01-29T06:17:34;12.20;;;11.00;;
35364;SDS011;21464;48.112;11.530;2023-01-29T06:20:00;15.47;;;11.90;;
35364;SDS011;21464;48.112;11.530;2023-01-29T06:22:27;13.70;;;10.40;;
35364;SDS011;21464;48.112;11.530;2023-01-29T06:24:53;14.80;;;11.17;;
35364;SDS011;21464;48.112;11.530;2023-01-29T06:27:19;14.30;;;10.97;;
35364;SDS011;21464;48.112;11.530;2023-01-29T06:29:45;14.93;;;10.97;;
35364;SDS011;21464;48.112;11.530;2023-01-29T06:32:11;12.37;;;10.23;;
35364;SDS011;21464;48.112;11.530;2023-01-29T06:34:38;15.80;;;11.93;;
35364;SDS011;21464;48.112;11.530;2023-01-29T06:37:04;18.57;;;13.10;;
35364;SDS011;21464;48.112;11.530;2023-01-29T06:39:30;14.10;;;11.63;;
35364;SDS011;21464;48.112;11.530;2023-01-29T06:41:56;13.60;;;11.30;;
35364;SDS011;21464;48.112;11.530;2023-01-29T06:44:23;13.20;;;11.33;;
35364;SDS011;21464;48.112;11.530;2023-01-29T06:46:49;15.40;;;11.40;;
35364;SDS011;21464;48.112;11.530;2023-01-29T06:49:15;13.57;;;11.97;;
35364;SDS011;21464;48.112;11.530;2023-01-29T06:51:41;12.43;;;10.30;;
35364;SDS011;21464;48.112;11.530;2023-01-29T06:54:08;13.80;;;10.97;;
35364;SDS011;21464;48.112;11.530;2023-01-29T06:56:35;14.13;;;11.27;;
35364;SDS011;21464;48.112;11.530;2023-01-29T06:59:01;12.23;;;10.67;;
35364;SDS011;21464;48.112;11.530;2023-01-29T07:01:27;13.57;;;10.83;;
35364;SDS011;21464;48.112;11.530;2023-01-29T07:03:54;10.83;;;9.73;;
35364;SDS011;21464;48.112;11.530;2023-01-29T07:06:20;11.83;;;9.00;;
35364;SDS011;21464;48.112;11.530;2023-01-29T07:08:47;10.10;;;9.00;;
35364;SDS011;21464;48.112;11.530;2023-01-29T07:11:13;11.97;;;9.10;;
35364;SDS011;21464;48.112;11.530;2023-01-29T07:13:39;11.87;;;9.47;;
35364;SDS011;21464;48.112;11.530;2023-01-29T07:16:05;11.23;;;9.30;;
35364;SDS011;21464;48.112;11.530;2023-01-29T07:18:32;13.87;;;11.57;;
35364;SDS011;21464;48.112;11.530;2023-01-29T07:20:58;15.87;;;12.07;;
35364;SDS011;21464;48.112;11.530;2023-01-29T07:23:29;14.80;;;11.63;;
35364;SDS011;21464;48.112;11.530;2023-01-29T07:25:58;13.33;;;10.80;;
35364;SDS011;21464;48.112;11.530;2023-01-29T07:28:26;12.13;;;9.73;;
35364;SDS011;21464;48.112;11.530;2023-01-29T07:30:56;11.00;;;9.77;;
35364;SDS011;21464;48.112;11.530;2023-01-29T07:33:23;13.07;;;11.07;;
35364;SDS011;21464;48.112;11.530;2023-01-29T07:35:50;13.83;;;10.87;;
35364;SDS011;21464;48.112;11.530;2023-01-29T07:38:16;11.03;;;9.80;;
35364;SDS011;21464;48.112;11.530;2023-01-29T07:40:42;13.77;;;11.33;;
35364;SDS011;21464;48.112;11.530;2023-01-29T07:43:08;17.00;;;12.23;;
35364;SDS011;21464;48.112;11.530;2023-01-29T07:45:37;12.73;;;9.33;;
35364;SDS011;21464;48.112;11.530;2023-01-29T07:48:05;12.97;;;10.80;;
35364;SDS011;21464;48.112;11.530;2023-01-29T07:50:33;11.47;;;8.93;;
35364;SDS011;21464;48.112;11.530;2023-01-29T07:53:00;11.07;;;8.87;;
35364;SDS011;21464;48.112;11.530;2023-01-29T07:55:26;11.47;;;8.77;;
35364;SDS011;21464;48.112;11.530;2023-01-29T07:57:56;11.13;;;8.60;;
35364;SDS011;21464;48.112;11.530;2023-01-29T08:00:23;11.07;;;9.27;;
35364;SDS011;21464;48.112;11.530;2023-01-29T08:02:49;11.40;;;8.70;;
35364;SDS011;21464;48.112;11.530;2023-01-29T08:05:15;11.27;;;9.03;;
35364;SDS011;21464;48.112;11.530;2023-01-29T08:07:42;11.43;;;8.43;;
35364;SDS011;21464;48.112;11.530;2023-01-29T08:10:08;8.20;;;7.30;;
35364;SDS011;21464;48.112;11.530;2023-01-29T08:12:35;10.00;;;7.97;;
35364;SDS011;21464;48.112;11.530;2023-01-29T08:15:02;11.70;;;8.90;;
35364;SDS011;21464;48.112;11.530;2023-01-29T08:17:28;11.33;;;8.57;;
35364;SDS011;21464;48.112;11.530;2023-01-29T08:19:54;10.77;;;7.00;;
35364;SDS011;21464;48.112;11.530;2023-01-29T08:22:21;9.90;;;7.80;;
35364;SDS011;21464;48.112;11.530;2023-01-29T08:24:47;10.23;;;7.47;;
35364;SDS011;21464;48.112;11.530;2023-01-29T08:27:13;9.63;;;7.83;;
35364;SDS011;21464;48.112;11.530;2023-01-29T08:29:39;11.70;;;8.13;;
35364;SDS011;21464;48.112;11.530;2023-01-29T08:32:08;10.47;;;8.33;;
35364;SDS011;21464;48.112;11.530;2023-01-29T08:34:35;10.83;;;8.13;;
35364;SDS011;21464;48.112;11.530;2023-01-29T08:37:01;12.13;;;8.50;;
35364;SDS011;21464;48.112;11.530;2023-01-29T08:39:27;13.30;;;8.70;;
35364;SDS011;21464;48.112;11.530;2023-01-29T08:41:53;11.07;;;7.80;;
35364;SDS011;21464;48.112;11.530;2023-01-29T08:44:19;9.40;;;6.97;;
35364;SDS011;21464;48.112;11.530;2023-01-29T08:46:46;7.97;;;6.60;;
35364;SDS011;21464;48.112;11.530;2023-01-29T08:49:12;9.17;;;6.93;;
35364;SDS011;21464;48.112;11.530;2023-01-29T08:51:38;8.30;;;6.67;;
35364;SDS011;21464;48.112;11.530;2023-01-29T08:54:04;9.40;;;7.23;;
35364;SDS011;21464;48.112;11.530;2023-01-29T08:56:30;10.73;;;7.23;;
35364;SDS011;21464;48.112;11.530;2023-01-29T08:58:57;10.10;;;7.17;;
35364;SDS011;21464;48.112;11.530;2023-01-29T09:01:23;9.20;;;7.17;;
35364;SDS011;21464;48.112;11.530;2023-01-29T09:03:49;9.00;;;7.03;;
35364;SDS011;21464;48.112;11.530;2023-01-29T09:06:17;7.87;;;6.60;;
35364;SDS011;21464;48.112;11.530;2023-01-29T09:08:43;8.57;;;6.60;;
35364;SDS011;21464;48.112;11.530;2023-01-29T09:11:10;7.17;;;6.23;;
35364;SDS011;21464;48.112;11.530;2023-01-29T09:13:36;7.57;;;6.27;;
35364;SDS011;21464;48.112;11.530;2023-01-29T09:16:03;8.83;;;6.90;;
35364;SDS011;21464;48.112;11.530;2023-01-29T09:18:29;9.07;;;6.40;;
35364;SDS011;21464;48.112;11.530;2023-01-29T09:20:56;9.40;;;6.80;;
35364;SDS011;21464;48.112;11.530;2023-01-29T09:23:23;8.93;;;7.07;;
35364;SDS011;21464;48.112;11.530;2023-01-29T09:25:49;17.13;;;11.30;;
35364;SDS011;21464;48.112;11.530;2023-01-29T09:28:15;12.83;;;8.17;;
35364;SDS011;21464;48.112;11.530;2023-01-29T09:30:42;13.07;;;8.90;;
35364;SDS011;21464;48.112;11.530;2023-01-29T09:33:09;10.70;;;8.70;;
35364;SDS011;21464;48.112;11.530;2023-01-29T09:35:35;17.97;;;11.53;;
35364;SDS011;21464;48.112;11.530;2023-01-29T09:38:02;11.60;;;8.23;;
35364;SDS011;21464;48.112;11.530;2023-01-29T09:43:05;11.00;;;9.07;;
35364;SDS011;21464;48.112;11.530;2023-01-29T09:45:35;10.07;;;7.70;;
35364;SDS011;21464;48.112;11.530;2023-01-29T09:48:02;9.80;;;8.10;;
35364;SDS011;21464;48.112;11.530;2023-01-29T09:53:18;8.63;;;7.60;;
35364;SDS011;21464;48.112;11.530;2023-01-29T09:55:50;10.33;;;7.97;;
35364;SDS011;21464;48.112;11.530;2023-01-29T09:58:32;10.37;;;8.37;;
35364;SDS011;21464;48.112;11.530;2023-01-29T10:06:42;13.10;;;10.37;;
35364;SDS011;21464;48.112;11.530;2023-01-29T10:25:48;11.73;;;10.53;;
35364;SDS011;21464;48.112;11.530;2023-01-29T10:28:34;12.13;;;10.70;;
35364;SDS011;21464;48.112;11.530;2023-01-29T10:31:32;11.93;;;10.47;;
35364;SDS011;21464;48.112;11.530;2023-01-29T10:34:10;12.63;;;10.87;;
35364;SDS011;21464;48.112;11.530;2023-01-29T10:36:58;12.57;;;11.27;;
35364;SDS011;21464;48.112;11.530;2023-01-29T10:39:25;13.63;;;11.57;;
35364;SDS011;21464;48.112;11.530;2023-01-29T10:49:59;12.67;;;11.37;;
35364;SDS011;21464;48.112;11.530;2023-01-29T10:53:21;13.17;;;11.77;;
35364;SDS011;21464;48.112;11.530;2023-01-29T10:57:58;14.37;;;11.93;;
35364;SDS011;21464;48.112;11.530;2023-01-29T11:00:27;14.17;;;11.17;;
35364;SDS011;21464;48.112;11.530;2023-01-29T11:02:56;10.60;;;9.53;;
35364;SDS011;21464;48.112;11.530;2023-01-29T11:07:55;11.73;;;10.53;;
35364;SDS011;21464;48.112;11.530;2023-01-29T11:10:29;12.50;;;11.20;;
35364;SDS011;21464;48.112;11.530;2023-01-29T11:12:57;15.17;;;12.33;;
35364;SDS011;21464;48.112;11.530;2023-01-29T11:15:28;12.23;;;9.87;;
35364;SDS011;21464;48.112;11.530;2023-01-29T11:18:10;10.97;;;9.70;;
35364;SDS011;21464;48.112;11.530;2023-01-29T11:20:44;11.33;;;10.13;;
35364;SDS011;21464;48.112;11.530;2023-01-29T11:23:27;11.87;;;10.43;;
35364;SDS011;21464;48.112;11.530;2023-01-29T11:25:55;10.57;;;9.47;;
35364;SDS011;21464;48.112;11.530;2023-01-29T11:28:42;11.30;;;10.10;;
35364;SDS011;21464;48.112;11.530;2023-01-29T11:33:41;12.00;;;10.80;;
35364;SDS011;21464;48.112;11.530;2023-01-29T11:36:21;13.17;;;10.43;;
35364;SDS011;21464;48.112;11.530;2023-01-29T11:42:00;11.70;;;10.43;;
35364;SDS011;21464;48.112;11.530;2023-01-29T11:44:31;11.90;;;10.70;;
35364;SDS011;21464;48.112;11.530;2023-01-29T11:47:09;12.50;;;11.20;;
35364;SDS011;21464;48.112;11.530;2023-01-29T11:49:51;12.80;;;11.50;;
35364;SDS011;21464;48.112;11.530;2023-01-29T11:52:19;13.63;;;11.63;;
35364;SDS011;21464;48.112;11.530;2023-01-29T11:54:48;14.23;;;11.07;;
35364;SDS011;21464;48.112;11.530;2023-01-29T11:57:20;12.87;;;11.30;;
35364;SDS011;21464;48.112;11.530;2023-01-29T11:59:50;13.63;;;12.17;;
35364;SDS011;21464;48.112;11.530;2023-01-29T12:05:00;13.27;;;11.73;;
35364;SDS011;21464;48.112;11.530;2023-01-29T12:07:49;12.77;;;11.03;;
35364;SDS011;21464;48.112;11.530;2023-01-29T12:15:35;28.63;;;20.13;;
35364;SDS011;21464;48.112;11.530;2023-01-29T12:23:42;14.63;;;11.93;;
35364;SDS011;21464;48.112;11.530;2023-01-29T12:26:19;19.33;;;13.53;;
35364;SDS011;21464;48.112;11.530;2023-01-29T12:31:28;15.13;;;12.67;;
35364;SDS011;21464;48.112;11.530;2023-01-29T12:34:11;16.07;;;12.60;;
35364;SDS011;21464;48.112;11.530;2023-01-29T12:39:24;15.37;;;13.07;;
35364;SDS011;21464;48.112;11.530;2023-01-29T12:41:59;14.33;;;11.47;;
35364;SDS011;21464;48.112;11.530;2023-01-29T12:44:35;12.13;;;10.87;;
35364;SDS011;21464;48.112;11.530;2023-01-29T12:47:10;14.30;;;12.13;;
35364;SDS011;21464;48.112;11.530;2023-01-29T12:49:39;14.53;;;11.60;;
35364;SDS011;21464;48.112;11.530;2023-01-29T12:52:11;14.10;;;11.80;;
35364;SDS011;21464;48.112;11.530;2023-01-29T12:54:46;13.10;;;11.70;;
35364;SDS011;21464;48.112;11.530;2023-01-29T12:57:40;16.53;;;12.57;;
35364;SDS011;21464;48.112;11.530;2023-01-29T13:00:12;15.53;;;11.63;;
35364;SDS011;21464;48.112;11.530;2023-01-29T13:02:46;13.50;;;11.10;;
35364;SDS011;21464;48.112;11.530;2023-01-29T13:05:21;12.30;;;10.90;;
35364;SDS011;21464;48.112;11.530;2023-01-29T13:07:56;15.47;;;11.37;;
35364;SDS011;21464;48.112;11.530;2023-01-29T13:10:28;14.30;;;11.37;;
35364;SDS011;21464;48.112;11.530;2023-01-29T13:12:58;12.37;;;10.27;;
35364;SDS011;21464;48.112;11.530;2023-01-29T13:15:32;12.80;;;10.53;;
35364;SDS011;21464;48.112;11.530;2023-01-29T13:18:06;12.17;;;10.87;;
35364;SDS011;21464;48.112;11.530;2023-01-29T13:20:40;16.13;;;11.50;;
35364;SDS011;21464;48.112;11.530;2023-01-29T13:23:29;18.73;;;13.33;;
35364;SDS011;21464;48.112;11.530;2023-01-29T13:26:04;12.57;;;10.63;;
35364;SDS011;21464;48.112;11.530;2023-01-29T13:28:31;11.67;;;9.73;;
35364;SDS011;21464;48.112;11.530;2023-01-29T13:36:50;12.83;;;9.73;;
35364;SDS011;21464;48.112;11.530;2023-01-29T13:39:26;12.30;;;9.80;;
35364;SDS011;21464;48.112;11.530;2023-01-29T13:41:56;10.33;;;8.67;;
35364;SDS011;21464;48.112;11.530;2023-01-29T13:44:34;10.47;;;8.30;;
35364;SDS011;21464;48.112;11.530;2023-01-29T13:47:03;12.27;;;9.13;;
35364;SDS011;21464;48.112;11.530;2023-01-29T13:51:57;10.10;;;7.87;;
35364;SDS011;21464;48.112;11.530;2023-01-29T13:54:24;8.67;;;7.80;;
35364;SDS011;21464;48.112;11.530;2023-01-29T13:56:56;12.20;;;9.30;;
35364;SDS011;21464;48.112;11.530;2023-01-29T13:59:47;11.50;;;8.10;;
35364;SDS011;21464;48.112;11.530;2023-01-29T14:04:50;10.87;;;9.13;;
35364;SDS011;21464;48.112;11.530;2023-01-29T14:10:18;8.40;;;7.50;;
35364;SDS011;21464;48.112;11.530;2023-01-29T14:12:46;8.67;;;7.43;;
35364;SDS011;21464;48.112;11.530;2023-01-29T14:15:17;9.27;;;7.47;;
35364;SDS011;21464;48.112;11.530;2023-01-29T14:25:54;7.67;;;6.07;;
35364;SDS011;21464;48.112;11.530;2023-01-29T14:28:25;8.27;;;6.50;;
35364;SDS011;21464;48.112;11.530;2023-01-29T14:30:53;10.07;;;6.80;;
35364;SDS011;21464;48.112;11.530;2023-01-29T14:33:42;8.93;;;6.60;;
35364;SDS011;21464;48.112;11.530;2023-01-29T14:36:10;8.40;;;7.20;;
35364;SDS011;21464;48.112;11.530;2023-01-29T14:38:39;10.07;;;6.93;;
35364;SDS011;21464;48.112;11.530;2023-01-29T14:41:21;8.97;;;7.30;;
35364;SDS011;21464;48.112;11.530;2023-01-29T14:47:00;8.07;;;6.90;;
35364;SDS011;21464;48.112;11.530;2023-01-29T14:52:14;10.40;;;7.33;;
35364;SDS011;21464;48.112;11.530;2023-01-29T14:54:41;9.90;;;7.00;;
35364;SDS011;21464;48.112;11.530;2023-01-29T14:57:09;7.93;;;6.60;;
35364;SDS011;21464;48.112;11.530;2023-01-29T14:59:42;8.27;;;7.10;;
35364;SDS011;21464;48.112;11.530;2023-01-29T15:04:47;12.00;;;8.40;;
35364;SDS011;21464;48.112;11.530;2023-01-29T15:07:22;9.23;;;7.93;;
35364;SDS011;21464;48.112;11.530;2023-01-29T15:10:02;11.33;;;7.90;;
35364;SDS011;21464;48.112;11.530;2023-01-29T15:12:49;10.10;;;9.03;;
35364;SDS011;21464;48.112;11.530;2023-01-29T15:18:38;9.07;;;8.10;;
35364;SDS011;21464;48.112;11.530;2023-01-29T15:21:02;9.83;;;8.47;;
35364;SDS011;21464;48.112;11.530;2023-01-29T15:23:31;9.70;;;8.73;;
35364;SDS011;21464;48.112;11.530;2023-01-29T15:26:02;10.97;;;9.67;;
35364;SDS011;21464;48.112;11.530;2023-01-29T15:28:31;10.90;;;8.80;;
35364;SDS011;21464;48.112;11.530;2023-01-29T15:30:59;11.20;;;8.87;;
35364;SDS011;21464;48.112;11.530;2023-01-29T15:33:26;9.20;;;7.57;;
35364;SDS011;21464;48.112;11.530;2023-01-29T15:35:57;11.17;;;8.50;;
35364;SDS011;21464;48.112;11.530;2023-01-29T15:38:24;11.23;;;9.00;;
35364;SDS011;21464;48.112;11.530;2023-01-29T15:41:01;12.30;;;9.40;;
35364;SDS011;21464;48.112;11.530;2023-01-29T15:43:30;11.10;;;8.47;;
35364;SDS011;21464;48.112;11.530;2023-01-29T15:46:00;10.03;;;8.47;;
35364;SDS011;21464;48.112;11.530;2023-01-29T15:48:39;12.73;;;9.53;;
35364;SDS011;21464;48.112;11.530;2023-01-29T15:51:07;12.57;;;10.10;;
35364;SDS011;21464;48.112;11.530;2023-01-29T15:53:43;12.37;;;9.77;;
35364;SDS011;21464;48.112;11.530;2023-01-29T15:56:14;11.27;;;10.00;;
35364;SDS011;21464;48.112;11.530;2023-01-29T15:58:42;13.43;;;9.97;;
35364;SDS011;21464;48.112;11.530;2023-01-29T16:01:12;12.93;;;10.53;;
35364;SDS011;21464;48.112;11.530;2023-01-29T16:03:38;13.23;;;9.83;;
35364;SDS011;21464;48.112;11.530;2023-01-29T16:06:04;11.73;;;8.17;;
35364;SDS011;21464;48.112;11.530;2023-01-29T16:08:32;10.43;;;9.10;;
35364;SDS011;21464;48.112;11.530;2023-01-29T16:11:00;8.27;;;7.37;;
35364;SDS011;21464;48.112;11.530;2023-01-29T16:13:49;10.53;;;8.90;;
35364;SDS011;21464;48.112;11.530;2023-01-29T16:18:41;9.77;;;8.63;;
35364;SDS011;21464;48.112;11.530;2023-01-29T16:21:10;12.40;;;9.37;;
35364;SDS011;21464;48.112;11.530;2023-01-29T16:23:41;11.27;;;9.50;;
35364;SDS011;21464;48.112;11.530;2023-01-29T16:26:13;12.43;;;10.23;;
35364;SDS011;21464;48.112;11.530;2023-01-29T16:28:42;12.20;;;10.50;;
35364;SDS011;21464;48.112;11.530;2023-01-29T16:31:09;13.00;;;10.13;;
35364;SDS011;21464;48.112;11.530;2023-01-29T16:33:39;11.67;;;9.80;;
35364;SDS011;21464;48.112;11.530;2023-01-29T16:36:11;12.83;;;10.77;;
35364;SDS011;21464;48.112;11.530;2023-01-29T16:38:54;13.23;;;11.37;;
35364;SDS011;21464;48.112;11.530;2023-01-29T16:41:29;12.83;;;8.63;;
35364;SDS011;21464;48.112;11.530;2023-01-29T16:44:03;14.23;;;11.33;;
35364;SDS011;21464;48.112;11.530;2023-01-29T16:46:46;12.97;;;9.10;;
35364;SDS011;21464;48.112;11.530;2023-01-29T16:51:55;13.33;;;10.70;;
35364;SDS011;21464;48.112;11.530;2023-01-29T16:54:25;13.67;;;11.10;;
35364;SDS011;21464;48.112;11.530;2023-01-29T16:56:54;13.00;;;10.27;;
35364;SDS011;21464;48.112;11.530;2023-01-29T16:59:22;13.60;;;10.37;;
35364;SDS011;21464;48.112;11.530;2023-01-29T17:01:54;14.87;;;11.17;;
35364;SDS011;21464;48.112;11.530;2023-01-29T17:04:20;15.90;;;12.80;;
35364;SDS011;21464;48.112;11.530;2023-01-29T17:06:48;12.33;;;10.80;;
35364;SDS011;21464;48.112;11.530;2023-01-29T17:09:34;14.17;;;11.53;;
35364;SDS011;21464;48.112;11.530;2023-01-29T17:12:05;12.30;;;9.60;;
35364;SDS011;21464;48.112;11.530;2023-01-29T17:14:33;12.03;;;10.37;;